LLETLLSD

Guest
Details From LLET - Eilat
To LLSD - Sde Dov
Flight Number -
Tags Generated
Created
Modified
Stats Distance 154 nm / 285 km
Max Altitude 0 ft / 0 m
Waypoints 2
Social Downloads 17
Likes 0
Share VATSIM

Download

Looking for another format? Having issues loading an existing format? Contact us
Advertisement - Login to hide

Notes

Generated

Route

LLET LLSD

ID Type Via Altitude Latitude Longitude Leg Dist Tot Dist Heading (true) Name
O LLET APT - 0 ft / 0 m 29.55370˚ 34.95550˚ - 0 nm - -
O LLSD APT - 0 ft / 0 m 32.10774˚ 34.77796˚ 153 nm 153 nm 357° / 357° Sde Dov

Altitude Profile

Advertisement - Login to hide

LLET

Details ICAO LLET (ETH)
Name EILAT
Region Israel
Timezone Asia/Jerusalem (UTC+2.0)
Stats Elevation 42 ft / 13 m (AMSL)
Location 29.561268° 34.960111°
Runways 1
Magnetic Variation 4.429° E

METAR

LLET 110350Z 04011KT CAVOK 11/M02 Q1021

Decode

TAF

TAF LLET 102304Z 1100/1124 35008KT CAVOK BECMG 1104/1106 02015KT BECMG 1119/1121 35008KT TX24/1112Z TN13/1104Z

Decode

Departure Runways

ID Width Length Bearing (true) Bearing (mag) Surface Threshold Offset Overrun Length
03 89 ft / 27 m 6,249 ft / 1,905 m 27.93° 23.50° Asphalt 945 ft / 288 m 125 ft / 38 m
21 89 ft / 27 m 6,249 ft / 1,905 m 207.93° 203.50° Asphalt 0 ft / 0 m 0 ft / 0 m

LLSD

Details ICAO LLSD (SDV)
Name Sde Dov
Region Israel
Timezone Asia/Jerusalem (UTC+2.0)
Stats Elevation 43 ft / 13 m (AMSL)
Location 32.114661° 34.782238°
Runways 1
Magnetic Variation 4.696° E

METAR

LLSD 110350Z 09004KT CAVOK 11/05 Q1023

Decode

TAF

TAF LLSD 102308Z 1100/1124 09004KT CAVOK BECMG 1107/1109 34009KT TEMPO 1109/1116 02015KT BECMG 1116/1118 VRB04KT BECMG 1120/1122 12004KT TX22/1111Z TN10/1104Z

Decode

Destination Runways

ID Width Length Bearing (true) Bearing (mag) Surface Threshold Offset Overrun Length
03 98 ft / 30 m 5,704 ft / 1,738 m 27.61° 22.91° Asphalt 341 ft / 104 m 0 ft / 0 m
21 98 ft / 30 m 5,704 ft / 1,738 m 207.61° 202.91° Asphalt 230 ft / 70 m 0 ft / 0 m

Popular Alternatives